sensor_id;sensor_type;location;lat;lon;timestamp;P1;durP1;ratioP1;P2;durP2;ratioP2
2558;SDS011;1289;53.488;10.006;2023-04-04T00:01:02;11.60;;;5.30;;
2558;SDS011;1289;53.488;10.006;2023-04-04T00:03:29;4.70;;;4.13;;
2558;SDS011;1289;53.488;10.006;2023-04-04T00:05:55;6.40;;;5.07;;
2558;SDS011;1289;53.488;10.006;2023-04-04T00:08:22;5.40;;;4.80;;
2558;SDS011;1289;53.488;10.006;2023-04-04T00:10:50;4.97;;;4.37;;
2558;SDS011;1289;53.488;10.006;2023-04-04T00:13:22;4.80;;;4.50;;
2558;SDS011;1289;53.488;10.006;2023-04-04T00:15:50;6.00;;;5.37;;
2558;SDS011;1289;53.488;10.006;2023-04-04T00:18:17;5.00;;;4.60;;
2558;SDS011;1289;53.488;10.006;2023-04-04T00:20:43;6.97;;;4.67;;
2558;SDS011;1289;53.488;10.006;2023-04-04T00:23:10;4.67;;;4.27;;
2558;SDS011;1289;53.488;10.006;2023-04-04T00:25:36;5.43;;;4.93;;
2558;SDS011;1289;53.488;10.006;2023-04-04T00:28:05;4.73;;;4.43;;
2558;SDS011;1289;53.488;10.006;2023-04-04T00:30:32;5.17;;;4.57;;
2558;SDS011;1289;53.488;10.006;2023-04-04T00:32:59;5.13;;;4.73;;
2558;SDS011;1289;53.488;10.006;2023-04-04T00:35:27;5.23;;;4.60;;
2558;SDS011;1289;53.488;10.006;2023-04-04T00:37:53;5.43;;;5.07;;
2558;SDS011;1289;53.488;10.006;2023-04-04T00:40:20;6.73;;;5.53;;
2558;SDS011;1289;53.488;10.006;2023-04-04T00:42:47;5.03;;;4.43;;
2558;SDS011;1289;53.488;10.006;2023-04-04T00:45:15;5.17;;;4.73;;
2558;SDS011;1289;53.488;10.006;2023-04-04T00:47:41;6.63;;;5.00;;
2558;SDS011;1289;53.488;10.006;2023-04-04T00:50:08;4.90;;;4.20;;
2558;SDS011;1289;53.488;10.006;2023-04-04T00:52:35;5.40;;;4.33;;
2558;SDS011;1289;53.488;10.006;2023-04-04T00:55:02;4.70;;;4.33;;
2558;SDS011;1289;53.488;10.006;2023-04-04T00:57:29;6.13;;;4.57;;
2558;SDS011;1289;53.488;10.006;2023-04-04T00:59:55;4.53;;;4.23;;
2558;SDS011;1289;53.488;10.006;2023-04-04T01:02:23;6.93;;;6.27;;
2558;SDS011;1289;53.488;10.006;2023-04-04T01:04:50;4.97;;;4.60;;
2558;SDS011;1289;53.488;10.006;2023-04-04T01:07:17;5.00;;;4.60;;
2558;SDS011;1289;53.488;10.006;2023-04-04T01:09:44;5.00;;;3.93;;
2558;SDS011;1289;53.488;10.006;2023-04-04T01:12:10;11.77;;;4.20;;
2558;SDS011;1289;53.488;10.006;2023-04-04T01:14:37;4.40;;;4.00;;
2558;SDS011;1289;53.488;10.006;2023-04-04T01:17:04;6.03;;;4.70;;
2558;SDS011;1289;53.488;10.006;2023-04-04T01:19:33;6.50;;;4.40;;
2558;SDS011;1289;53.488;10.006;2023-04-04T01:22:08;4.83;;;4.53;;
2558;SDS011;1289;53.488;10.006;2023-04-04T01:24:35;5.93;;;5.20;;
2558;SDS011;1289;53.488;10.006;2023-04-04T01:27:04;4.90;;;4.43;;
2558;SDS011;1289;53.488;10.006;2023-04-04T01:29:37;5.00;;;4.50;;
2558;SDS011;1289;53.488;10.006;2023-04-04T01:32:06;5.23;;;4.70;;
2558;SDS011;1289;53.488;10.006;2023-04-04T01:34:35;4.90;;;4.50;;
2558;SDS011;1289;53.488;10.006;2023-04-04T01:37:08;5.07;;;4.33;;
2558;SDS011;1289;53.488;10.006;2023-04-04T01:39:38;5.13;;;4.53;;
2558;SDS011;1289;53.488;10.006;2023-04-04T01:42:08;4.53;;;4.23;;
2558;SDS011;1289;53.488;10.006;2023-04-04T01:44:37;5.60;;;4.10;;
2558;SDS011;1289;53.488;10.006;2023-04-04T01:47:04;5.20;;;4.70;;
2558;SDS011;1289;53.488;10.006;2023-04-04T01:49:31;4.57;;;4.27;;
2558;SDS011;1289;53.488;10.006;2023-04-04T01:51:58;4.40;;;4.10;;
2558;SDS011;1289;53.488;10.006;2023-04-04T01:54:26;4.87;;;4.47;;
2558;SDS011;1289;53.488;10.006;2023-04-04T01:56:53;4.50;;;4.20;;
2558;SDS011;1289;53.488;10.006;2023-04-04T01:59:23;7.00;;;4.80;;
2558;SDS011;1289;53.488;10.006;2023-04-04T02:01:49;5.73;;;4.63;;
2558;SDS011;1289;53.488;10.006;2023-04-04T02:04:16;5.13;;;4.67;;
2558;SDS011;1289;53.488;10.006;2023-04-04T02:06:43;5.70;;;4.73;;
2558;SDS011;1289;53.488;10.006;2023-04-04T02:09:10;5.87;;;4.40;;
2558;SDS011;1289;53.488;10.006;2023-04-04T02:11:37;4.53;;;4.23;;
2558;SDS011;1289;53.488;10.006;2023-04-04T02:14:04;4.67;;;4.37;;
2558;SDS011;1289;53.488;10.006;2023-04-04T02:16:32;5.90;;;4.20;;
2558;SDS011;1289;53.488;10.006;2023-04-04T02:18:58;4.30;;;4.00;;
2558;SDS011;1289;53.488;10.006;2023-04-04T02:24:29;4.80;;;4.40;;
2558;SDS011;1289;53.488;10.006;2023-04-04T02:26:55;5.13;;;4.73;;
2558;SDS011;1289;53.488;10.006;2023-04-04T02:29:22;6.63;;;4.80;;
2558;SDS011;1289;53.488;10.006;2023-04-04T02:31:50;5.43;;;5.03;;
2558;SDS011;1289;53.488;10.006;2023-04-04T02:34:17;5.07;;;4.67;;
2558;SDS011;1289;53.488;10.006;2023-04-04T02:36:47;6.27;;;4.87;;
2558;SDS011;1289;53.488;10.006;2023-04-04T02:39:14;5.87;;;4.27;;
2558;SDS011;1289;53.488;10.006;2023-04-04T02:41:41;6.90;;;4.80;;
2558;SDS011;1289;53.488;10.006;2023-04-04T02:44:08;4.80;;;4.50;;
2558;SDS011;1289;53.488;10.006;2023-04-04T02:46:37;9.00;;;4.67;;
2558;SDS011;1289;53.488;10.006;2023-04-04T02:49:08;4.83;;;4.40;;
2558;SDS011;1289;53.488;10.006;2023-04-04T02:51:37;4.90;;;4.50;;
2558;SDS011;1289;53.488;10.006;2023-04-04T02:54:04;5.73;;;5.00;;
2558;SDS011;1289;53.488;10.006;2023-04-04T02:56:37;8.87;;;5.53;;
2558;SDS011;1289;53.488;10.006;2023-04-04T02:59:04;5.87;;;4.60;;
2558;SDS011;1289;53.488;10.006;2023-04-04T03:01:31;5.30;;;4.70;;
2558;SDS011;1289;53.488;10.006;2023-04-04T03:04:01;5.80;;;5.30;;
2558;SDS011;1289;53.488;10.006;2023-04-04T03:06:31;6.57;;;5.63;;
2558;SDS011;1289;53.488;10.006;2023-04-04T03:08:58;6.03;;;4.77;;
2558;SDS011;1289;53.488;10.006;2023-04-04T03:11:26;7.87;;;5.80;;
2558;SDS011;1289;53.488;10.006;2023-04-04T03:13:53;6.13;;;5.10;;
2558;SDS011;1289;53.488;10.006;2023-04-04T03:16:28;5.23;;;4.80;;
2558;SDS011;1289;53.488;10.006;2023-04-04T03:18:55;5.57;;;5.17;;
2558;SDS011;1289;53.488;10.006;2023-04-04T03:21:22;10.60;;;5.20;;
2558;SDS011;1289;53.488;10.006;2023-04-04T03:23:51;6.30;;;5.70;;
2558;SDS011;1289;53.488;10.006;2023-04-04T03:26:18;5.03;;;4.63;;
2558;SDS011;1289;53.488;10.006;2023-04-04T03:28:45;8.60;;;5.43;;
2558;SDS011;1289;53.488;10.006;2023-04-04T03:31:13;5.20;;;4.70;;
2558;SDS011;1289;53.488;10.006;2023-04-04T03:33:41;9.17;;;5.60;;
2558;SDS011;1289;53.488;10.006;2023-04-04T03:36:11;5.00;;;4.50;;
2558;SDS011;1289;53.488;10.006;2023-04-04T03:38:38;4.97;;;4.53;;
2558;SDS011;1289;53.488;10.006;2023-04-04T03:41:06;4.47;;;4.17;;
2558;SDS011;1289;53.488;10.006;2023-04-04T03:43:33;4.53;;;4.13;;
2558;SDS011;1289;53.488;10.006;2023-04-04T03:46:00;5.33;;;4.90;;
2558;SDS011;1289;53.488;10.006;2023-04-04T03:48:27;4.80;;;4.40;;
2558;SDS011;1289;53.488;10.006;2023-04-04T03:50:54;4.83;;;4.40;;
2558;SDS011;1289;53.488;10.006;2023-04-04T03:53:21;4.87;;;4.37;;
2558;SDS011;1289;53.488;10.006;2023-04-04T03:55:48;5.70;;;5.10;;
2558;SDS011;1289;53.488;10.006;2023-04-04T03:58:16;5.13;;;4.73;;
2558;SDS011;1289;53.488;10.006;2023-04-04T04:00:43;5.37;;;4.87;;
2558;SDS011;1289;53.488;10.006;2023-04-04T04:03:09;5.10;;;4.70;;
2558;SDS011;1289;53.488;10.006;2023-04-04T04:05:36;6.80;;;6.00;;
2558;SDS011;1289;53.488;10.006;2023-04-04T04:08:03;6.73;;;4.63;;
2558;SDS011;1289;53.488;10.006;2023-04-04T04:10:30;6.93;;;4.97;;
2558;SDS011;1289;53.488;10.006;2023-04-04T04:12:57;6.07;;;5.57;;
2558;SDS011;1289;53.488;10.006;2023-04-04T04:15:25;4.80;;;4.30;;
2558;SDS011;1289;53.488;10.006;2023-04-04T04:17:53;6.23;;;4.97;;
2558;SDS011;1289;53.488;10.006;2023-04-04T04:20:20;6.47;;;5.17;;
2558;SDS011;1289;53.488;10.006;2023-04-04T04:22:50;5.00;;;4.70;;
2558;SDS011;1289;53.488;10.006;2023-04-04T04:25:17;6.83;;;6.30;;
2558;SDS011;1289;53.488;10.006;2023-04-04T04:28:13;6.77;;;5.00;;
2558;SDS011;1289;53.488;10.006;2023-04-04T04:30:41;5.50;;;5.07;;
2558;SDS011;1289;53.488;10.006;2023-04-04T04:33:09;6.13;;;5.50;;
2558;SDS011;1289;53.488;10.006;2023-04-04T04:35:45;6.80;;;5.10;;
2558;SDS011;1289;53.488;10.006;2023-04-04T04:38:12;5.20;;;4.80;;
2558;SDS011;1289;53.488;10.006;2023-04-04T04:40:39;6.17;;;4.80;;
2558;SDS011;1289;53.488;10.006;2023-04-04T04:43:13;5.20;;;4.70;;
2558;SDS011;1289;53.488;10.006;2023-04-04T04:45:41;5.00;;;4.60;;
2558;SDS011;1289;53.488;10.006;2023-04-04T04:48:10;6.00;;;5.17;;
2558;SDS011;1289;53.488;10.006;2023-04-04T04:50:45;5.93;;;4.60;;
2558;SDS011;1289;53.488;10.006;2023-04-04T04:53:14;5.13;;;4.70;;
2558;SDS011;1289;53.488;10.006;2023-04-04T04:55:44;9.47;;;5.43;;
2558;SDS011;1289;53.488;10.006;2023-04-04T04:58:11;5.20;;;4.80;;
2558;SDS011;1289;53.488;10.006;2023-04-04T05:00:44;5.63;;;5.17;;
2558;SDS011;1289;53.488;10.006;2023-04-04T05:03:10;5.27;;;4.77;;
2558;SDS011;1289;53.488;10.006;2023-04-04T05:05:44;6.10;;;4.67;;
2558;SDS011;1289;53.488;10.006;2023-04-04T05:08:12;5.60;;;5.10;;
2558;SDS011;1289;53.488;10.006;2023-04-04T05:11:02;5.13;;;4.73;;
2558;SDS011;1289;53.488;10.006;2023-04-04T05:13:30;5.80;;;5.30;;
2558;SDS011;1289;53.488;10.006;2023-04-04T05:15:58;5.10;;;4.60;;
2558;SDS011;1289;53.488;10.006;2023-04-04T05:18:24;5.17;;;4.77;;
2558;SDS011;1289;53.488;10.006;2023-04-04T05:20:52;5.43;;;5.03;;
2558;SDS011;1289;53.488;10.006;2023-04-04T05:23:22;6.13;;;5.20;;
2558;SDS011;1289;53.488;10.006;2023-04-04T05:25:50;9.10;;;5.10;;
2558;SDS011;1289;53.488;10.006;2023-04-04T05:28:17;8.20;;;5.03;;
2558;SDS011;1289;53.488;10.006;2023-04-04T05:30:44;6.00;;;4.40;;
2558;SDS011;1289;53.488;10.006;2023-04-04T05:33:17;5.37;;;4.97;;
2558;SDS011;1289;53.488;10.006;2023-04-04T05:35:52;6.07;;;5.23;;
2558;SDS011;1289;53.488;10.006;2023-04-04T05:38:20;6.00;;;5.40;;
2558;SDS011;1289;53.488;10.006;2023-04-04T05:40:51;9.37;;;5.23;;
2558;SDS011;1289;53.488;10.006;2023-04-04T05:43:20;5.30;;;4.63;;
2558;SDS011;1289;53.488;10.006;2023-04-04T05:45:55;4.90;;;4.50;;
2558;SDS011;1289;53.488;10.006;2023-04-04T05:48:24;7.10;;;5.00;;
2558;SDS011;1289;53.488;10.006;2023-04-04T05:50:52;6.60;;;5.70;;
2558;SDS011;1289;53.488;10.006;2023-04-04T05:53:28;5.27;;;4.73;;
2558;SDS011;1289;53.488;10.006;2023-04-04T05:55:55;7.67;;;4.97;;
2558;SDS011;1289;53.488;10.006;2023-04-04T05:58:28;5.53;;;5.03;;
2558;SDS011;1289;53.488;10.006;2023-04-04T06:00:57;5.83;;;4.97;;
2558;SDS011;1289;53.488;10.006;2023-04-04T06:03:25;6.53;;;5.03;;
2558;SDS011;1289;53.488;10.006;2023-04-04T06:05:53;5.93;;;4.90;;
2558;SDS011;1289;53.488;10.006;2023-04-04T06:08:21;5.30;;;4.80;;
2558;SDS011;1289;53.488;10.006;2023-04-04T06:10:47;5.47;;;4.73;;
2558;SDS011;1289;53.488;10.006;2023-04-04T06:13:14;7.93;;;4.67;;
2558;SDS011;1289;53.488;10.006;2023-04-04T06:15:46;4.87;;;4.47;;
2558;SDS011;1289;53.488;10.006;2023-04-04T06:18:12;7.40;;;6.37;;
2558;SDS011;1289;53.488;10.006;2023-04-04T06:20:42;5.50;;;4.90;;
2558;SDS011;1289;53.488;10.006;2023-04-04T06:23:08;5.23;;;4.60;;
2558;SDS011;1289;53.488;10.006;2023-04-04T06:25:38;6.80;;;5.10;;
2558;SDS011;1289;53.488;10.006;2023-04-04T06:28:05;4.90;;;4.50;;
2558;SDS011;1289;53.488;10.006;2023-04-04T06:30:34;4.90;;;4.50;;
2558;SDS011;1289;53.488;10.006;2023-04-04T06:33:02;7.23;;;4.90;;
2558;SDS011;1289;53.488;10.006;2023-04-04T06:35:29;5.03;;;4.63;;
2558;SDS011;1289;53.488;10.006;2023-04-04T06:37:59;5.77;;;4.73;;
2558;SDS011;1289;53.488;10.006;2023-04-04T06:40:27;5.00;;;4.60;;
2558;SDS011;1289;53.488;10.006;2023-04-04T06:42:55;4.60;;;4.23;;
2558;SDS011;1289;53.488;10.006;2023-04-04T06:45:25;5.07;;;4.37;;
2558;SDS011;1289;53.488;10.006;2023-04-04T06:47:52;5.03;;;4.63;;
2558;SDS011;1289;53.488;10.006;2023-04-04T06:50:19;5.60;;;4.47;;
2558;SDS011;1289;53.488;10.006;2023-04-04T06:52:46;4.40;;;4.10;;
2558;SDS011;1289;53.488;10.006;2023-04-04T06:55:15;5.60;;;4.33;;
2558;SDS011;1289;53.488;10.006;2023-04-04T06:57:42;5.03;;;4.07;;
2558;SDS011;1289;53.488;10.006;2023-04-04T07:00:09;5.43;;;4.93;;
2558;SDS011;1289;53.488;10.006;2023-04-04T07:02:37;5.20;;;4.50;;
2558;SDS011;1289;53.488;10.006;2023-04-04T07:05:03;4.47;;;4.07;;
2558;SDS011;1289;53.488;10.006;2023-04-04T07:07:30;7.80;;;4.97;;
2558;SDS011;1289;53.488;10.006;2023-04-04T07:09:57;8.37;;;5.23;;
2558;SDS011;1289;53.488;10.006;2023-04-04T07:12:25;5.50;;;4.87;;
2558;SDS011;1289;53.488;10.006;2023-04-04T07:14:52;4.97;;;4.50;;
2558;SDS011;1289;53.488;10.006;2023-04-04T07:17:18;4.90;;;4.50;;
2558;SDS011;1289;53.488;10.006;2023-04-04T07:19:45;5.17;;;4.50;;
2558;SDS011;1289;53.488;10.006;2023-04-04T07:22:11;6.63;;;4.47;;
2558;SDS011;1289;53.488;10.006;2023-04-04T07:24:38;6.97;;;5.37;;
2558;SDS011;1289;53.488;10.006;2023-04-04T07:27:06;4.30;;;4.00;;
2558;SDS011;1289;53.488;10.006;2023-04-04T07:29:34;5.40;;;4.40;;
2558;SDS011;1289;53.488;10.006;2023-04-04T07:32:01;4.53;;;4.13;;
2558;SDS011;1289;53.488;10.006;2023-04-04T07:34:27;4.57;;;4.20;;
2558;SDS011;1289;53.488;10.006;2023-04-04T07:36:54;4.23;;;3.93;;
2558;SDS011;1289;53.488;10.006;2023-04-04T07:39:20;8.37;;;5.60;;
2558;SDS011;1289;53.488;10.006;2023-04-04T07:41:47;4.33;;;3.97;;
2558;SDS011;1289;53.488;10.006;2023-04-04T07:44:14;4.20;;;3.90;;
2558;SDS011;1289;53.488;10.006;2023-04-04T07:46:42;4.47;;;4.07;;
2558;SDS011;1289;53.488;10.006;2023-04-04T07:49:08;6.00;;;4.40;;
2558;SDS011;1289;53.488;10.006;2023-04-04T07:51:35;9.10;;;4.23;;
2558;SDS011;1289;53.488;10.006;2023-04-04T07:54:02;4.97;;;4.37;;
2558;SDS011;1289;53.488;10.006;2023-04-04T07:56:28;4.00;;;3.70;;
2558;SDS011;1289;53.488;10.006;2023-04-04T07:58:55;4.27;;;3.90;;
2558;SDS011;1289;53.488;10.006;2023-04-04T08:01:22;4.63;;;4.03;;
2558;SDS011;1289;53.488;10.006;2023-04-04T08:03:49;3.90;;;3.60;;
2558;SDS011;1289;53.488;10.006;2023-04-04T08:06:17;5.40;;;4.10;;
2558;SDS011;1289;53.488;10.006;2023-04-04T08:08:44;6.13;;;3.93;;
2558;SDS011;1289;53.488;10.006;2023-04-04T08:11:12;4.33;;;3.23;;
2558;SDS011;1289;53.488;10.006;2023-04-04T08:13:38;5.67;;;4.03;;
2558;SDS011;1289;53.488;10.006;2023-04-04T08:16:05;4.60;;;3.87;;
2558;SDS011;1289;53.488;10.006;2023-04-04T08:18:32;3.93;;;3.60;;
2558;SDS011;1289;53.488;10.006;2023-04-04T08:21:00;4.63;;;3.50;;
2558;SDS011;1289;53.488;10.006;2023-04-04T08:23:27;4.00;;;3.70;;
2558;SDS011;1289;53.488;10.006;2023-04-04T08:25:53;5.17;;;3.40;;
2558;SDS011;1289;53.488;10.006;2023-04-04T08:28:20;3.50;;;3.30;;
2558;SDS011;1289;53.488;10.006;2023-04-04T08:30:47;4.83;;;3.50;;
2558;SDS011;1289;53.488;10.006;2023-04-04T08:33:13;4.40;;;4.00;;
2558;SDS011;1289;53.488;10.006;2023-04-04T08:35:40;8.00;;;4.33;;
2558;SDS011;1289;53.488;10.006;2023-04-04T08:38:08;5.00;;;3.60;;
2558;SDS011;1289;53.488;10.006;2023-04-04T08:40:35;3.60;;;3.40;;
2558;SDS011;1289;53.488;10.006;2023-04-04T08:43:02;4.03;;;3.67;;
2558;SDS011;1289;53.488;10.006;2023-04-04T08:45:30;5.17;;;3.47;;
2558;SDS011;1289;53.488;10.006;2023-04-04T08:47:57;3.83;;;3.40;;
2558;SDS011;1289;53.488;10.006;2023-04-04T08:50:25;5.83;;;3.63;;
2558;SDS011;1289;53.488;10.006;2023-04-04T08:52:53;4.13;;;3.50;;
2558;SDS011;1289;53.488;10.006;2023-04-04T08:55:21;3.60;;;3.30;;
2558;SDS011;1289;53.488;10.006;2023-04-04T08:57:48;3.97;;;3.47;;
2558;SDS011;1289;53.488;10.006;2023-04-04T09:00:15;3.83;;;3.53;;
2558;SDS011;1289;53.488;10.006;2023-04-04T09:02:46;5.03;;;4.20;;
2558;SDS011;1289;53.488;10.006;2023-04-04T09:05:16;3.73;;;3.27;;
2558;SDS011;1289;53.488;10.006;2023-04-04T09:07:43;5.30;;;3.67;;
2558;SDS011;1289;53.488;10.006;2023-04-04T09:10:10;4.90;;;3.70;;
2558;SDS011;1289;53.488;10.006;2023-04-04T09:12:38;3.80;;;3.50;;
2558;SDS011;1289;53.488;10.006;2023-04-04T09:15:08;3.57;;;3.27;;
2558;SDS011;1289;53.488;10.006;2023-04-04T09:17:35;3.47;;;3.17;;
2558;SDS011;1289;53.488;10.006;2023-04-04T09:20:02;3.40;;;3.10;;
2558;SDS011;1289;53.488;10.006;2023-04-04T09:22:34;4.50;;;3.63;;
2558;SDS011;1289;53.488;10.006;2023-04-04T09:25:01;3.80;;;3.50;;
2558;SDS011;1289;53.488;10.006;2023-04-04T09:27:33;3.40;;;3.10;;
2558;SDS011;1289;53.488;10.006;2023-04-04T09:30:01;4.73;;;3.30;;
2558;SDS011;1289;53.488;10.006;2023-04-04T09:32:28;3.20;;;2.90;;
2558;SDS011;1289;53.488;10.006;2023-04-04T09:34:55;3.00;;;2.80;;
2558;SDS011;1289;53.488;10.006;2023-04-04T09:37:22;3.60;;;3.30;;
2558;SDS011;1289;53.488;10.006;2023-04-04T09:39:48;6.23;;;3.10;;
2558;SDS011;1289;53.488;10.006;2023-04-04T09:42:15;4.77;;;3.40;;
2558;SDS011;1289;53.488;10.006;2023-04-04T09:44:41;6.40;;;3.70;;
2558;SDS011;1289;53.488;10.006;2023-04-04T09:49:52;5.90;;;3.43;;
2558;SDS011;1289;53.488;10.006;2023-04-04T09:52:18;10.23;;;4.03;;
2558;SDS011;1289;53.488;10.006;2023-04-04T09:54:53;3.00;;;2.80;;
2558;SDS011;1289;53.488;10.006;2023-04-04T09:57:21;3.50;;;3.20;;
2558;SDS011;1289;53.488;10.006;2023-04-04T09:59:48;3.83;;;3.20;;
2558;SDS011;1289;53.488;10.006;2023-04-04T10:02:14;3.80;;;3.37;;
2558;SDS011;1289;53.488;10.006;2023-04-04T10:04:42;3.30;;;3.00;;
2558;SDS011;1289;53.488;10.006;2023-04-04T10:07:09;3.57;;;2.90;;
2558;SDS011;1289;53.488;10.006;2023-04-04T10:09:38;3.50;;;2.90;;
2558;SDS011;1289;53.488;10.006;2023-04-04T10:12:08;3.80;;;2.90;;
2558;SDS011;1289;53.488;10.006;2023-04-04T10:14:35;3.43;;;3.13;;
2558;SDS011;1289;53.488;10.006;2023-04-04T10:17:05;3.43;;;3.10;;
2558;SDS011;1289;53.488;10.006;2023-04-04T10:19:33;2.87;;;2.67;;
2558;SDS011;1289;53.488;10.006;2023-04-04T10:22:02;4.30;;;2.90;;
2558;SDS011;1289;53.488;10.006;2023-04-04T10:24:30;4.27;;;3.13;;
2558;SDS011;1289;53.488;10.006;2023-04-04T10:26:56;3.17;;;2.90;;
2558;SDS011;1289;53.488;10.006;2023-04-04T10:29:23;3.00;;;2.70;;
2558;SDS011;1289;53.488;10.006;2023-04-04T10:31:52;4.13;;;3.20;;
2558;SDS011;1289;53.488;10.006;2023-04-04T10:34:24;4.03;;;3.53;;
2558;SDS011;1289;53.488;10.006;2023-04-04T10:36:56;4.30;;;2.87;;
2558;SDS011;1289;53.488;10.006;2023-04-04T10:39:35;3.33;;;3.03;;
2558;SDS011;1289;53.488;10.006;2023-04-04T10:42:04;3.80;;;3.40;;
2558;SDS011;1289;53.488;10.006;2023-04-04T10:44:32;3.80;;;3.50;;
2558;SDS011;1289;53.488;10.006;2023-04-04T10:47:01;3.37;;;3.17;;
2558;SDS011;1289;53.488;10.006;2023-04-04T10:49:29;3.63;;;3.33;;
2558;SDS011;1289;53.488;10.006;2023-04-04T10:51:56;4.50;;;3.27;;
2558;SDS011;1289;53.488;10.006;2023-04-04T10:54:24;4.67;;;3.27;;
2558;SDS011;1289;53.488;10.006;2023-04-04T10:56:52;3.47;;;3.17;;
2558;SDS011;1289;53.488;10.006;2023-04-04T10:59:20;3.27;;;3.07;;
2558;SDS011;1289;53.488;10.006;2023-04-04T11:01:53;6.87;;;3.50;;
2558;SDS011;1289;53.488;10.006;2023-04-04T11:04:27;4.53;;;3.27;;
2558;SDS011;1289;53.488;10.006;2023-04-04T11:07:09;4.13;;;3.70;;
2558;SDS011;1289;53.488;10.006;2023-04-04T11:09:46;2.90;;;2.67;;
2558;SDS011;1289;53.488;10.006;2023-04-04T11:12:25;7.60;;;3.40;;
2558;SDS011;1289;53.488;10.006;2023-04-04T11:14:57;4.20;;;3.37;;
2558;SDS011;1289;53.488;10.006;2023-04-04T11:20:27;3.67;;;3.37;;
2558;SDS011;1289;53.488;10.006;2023-04-04T11:23:01;3.10;;;2.90;;
2558;SDS011;1289;53.488;10.006;2023-04-04T11:25:36;3.40;;;3.10;;
2558;SDS011;1289;53.488;10.006;2023-04-04T11:28:24;4.80;;;3.07;;
2558;SDS011;1289;53.488;10.006;2023-04-04T11:31:25;3.73;;;3.20;;
2558;SDS011;1289;53.488;10.006;2023-04-04T11:33:57;3.57;;;3.30;;
2558;SDS011;1289;53.488;10.006;2023-04-04T11:39:15;3.40;;;3.10;;
2558;SDS011;1289;53.488;10.006;2023-04-04T11:41:47;5.00;;;3.30;;
2558;SDS011;1289;53.488;10.006;2023-04-04T11:44:16;3.30;;;3.10;;
2558;SDS011;1289;53.488;10.006;2023-04-04T11:46:43;4.57;;;3.20;;
2558;SDS011;1289;53.488;10.006;2023-04-04T11:49:11;4.57;;;3.40;;
2558;SDS011;1289;53.488;10.006;2023-04-04T11:51:39;3.70;;;3.20;;
2558;SDS011;1289;53.488;10.006;2023-04-04T11:54:11;3.37;;;3.13;;
2558;SDS011;1289;53.488;10.006;2023-04-04T11:56:40;6.97;;;4.10;;
2558;SDS011;1289;53.488;10.006;2023-04-04T11:59:09;3.77;;;3.47;;
2558;SDS011;1289;53.488;10.006;2023-04-04T12:01:37;4.23;;;3.20;;
2558;SDS011;1289;53.488;10.006;2023-04-04T12:04:04;3.80;;;3.50;;
2558;SDS011;1289;53.488;10.006;2023-04-04T12:06:32;3.70;;;3.37;;
2558;SDS011;1289;53.488;10.006;2023-04-04T12:09:00;3.80;;;3.50;;
2558;SDS011;1289;53.488;10.006;2023-04-04T12:11:28;3.60;;;3.30;;
2558;SDS011;1289;53.488;10.006;2023-04-04T12:13:56;4.03;;;3.40;;
2558;SDS011;1289;53.488;10.006;2023-04-04T12:16:22;3.87;;;3.53;;
2558;SDS011;1289;53.488;10.006;2023-04-04T12:18:50;3.90;;;3.20;;
2558;SDS011;1289;53.488;10.006;2023-04-04T12:21:17;5.17;;;3.30;;
2558;SDS011;1289;53.488;10.006;2023-04-04T12:23:45;3.97;;;3.40;;
2558;SDS011;1289;53.488;10.006;2023-04-04T12:26:12;3.17;;;2.97;;
2558;SDS011;1289;53.488;10.006;2023-04-04T12:28:39;3.27;;;2.87;;
2558;SDS011;1289;53.488;10.006;2023-04-04T12:31:09;3.37;;;3.07;;
2558;SDS011;1289;53.488;10.006;2023-04-04T12:33:36;4.30;;;2.87;;
2558;SDS011;1289;53.488;10.006;2023-04-04T12:36:05;7.47;;;3.07;;
2558;SDS011;1289;53.488;10.006;2023-04-04T12:38:32;5.03;;;3.30;;
2558;SDS011;1289;53.488;10.006;2023-04-04T12:40:59;3.47;;;3.17;;
2558;SDS011;1289;53.488;10.006;2023-04-04T12:43:26;3.60;;;3.30;;
2558;SDS011;1289;53.488;10.006;2023-04-04T12:45:53;4.23;;;3.13;;
2558;SDS011;1289;53.488;10.006;2023-04-04T12:48:25;4.97;;;3.40;;
2558;SDS011;1289;53.488;10.006;2023-04-04T12:50:53;3.60;;;3.30;;
2558;SDS011;1289;53.488;10.006;2023-04-04T12:53:22;3.43;;;3.13;;
2558;SDS011;1289;53.488;10.006;2023-04-04T12:55:50;4.10;;;3.70;;
2558;SDS011;1289;53.488;10.006;2023-04-04T12:58:18;4.23;;;3.20;;
2558;SDS011;1289;53.488;10.006;2023-04-04T13:00:46;4.47;;;3.40;;
2558;SDS011;1289;53.488;10.006;2023-04-04T13:03:15;3.40;;;3.10;;
2558;SDS011;1289;53.488;10.006;2023-04-04T13:05:42;3.27;;;3.07;;
2558;SDS011;1289;53.488;10.006;2023-04-04T13:08:09;3.60;;;3.30;;
2558;SDS011;1289;53.488;10.006;2023-04-04T13:13:35;3.80;;;3.50;;
2558;SDS011;1289;53.488;10.006;2023-04-04T13:16:03;5.07;;;3.30;;
2558;SDS011;1289;53.488;10.006;2023-04-04T13:18:32;4.53;;;3.60;;
2558;SDS011;1289;53.488;10.006;2023-04-04T13:21:03;5.13;;;3.40;;
2558;SDS011;1289;53.488;10.006;2023-04-04T13:23:31;3.47;;;3.27;;
2558;SDS011;1289;53.488;10.006;2023-04-04T13:25:59;4.57;;;3.70;;
2558;SDS011;1289;53.488;10.006;2023-04-04T13:28:28;4.07;;;3.60;;
2558;SDS011;1289;53.488;10.006;2023-04-04T13:30:54;4.17;;;3.77;;
2558;SDS011;1289;53.488;10.006;2023-04-04T13:33:21;3.50;;;3.20;;
2558;SDS011;1289;53.488;10.006;2023-04-04T13:35:48;3.57;;;3.27;;
2558;SDS011;1289;53.488;10.006;2023-04-04T13:38:15;4.20;;;3.43;;
2558;SDS011;1289;53.488;10.006;2023-04-04T13:40:41;3.73;;;3.23;;
2558;SDS011;1289;53.488;10.006;2023-04-04T13:43:09;3.83;;;3.53;;
2558;SDS011;1289;53.488;10.006;2023-04-04T13:45:37;6.20;;;3.57;;
2558;SDS011;1289;53.488;10.006;2023-04-04T13:48:03;3.70;;;3.00;;
2558;SDS011;1289;53.488;10.006;2023-04-04T13:50:30;3.67;;;3.30;;
2558;SDS011;1289;53.488;10.006;2023-04-04T13:52:58;3.53;;;3.23;;
2558;SDS011;1289;53.488;10.006;2023-04-04T13:55:24;4.47;;;3.40;;
2558;SDS011;1289;53.488;10.006;2023-04-04T13:57:51;3.40;;;3.10;;
2558;SDS011;1289;53.488;10.006;2023-04-04T14:00:20;3.53;;;3.23;;
2558;SDS011;1289;53.488;10.006;2023-04-04T14:02:47;3.53;;;3.23;;
2558;SDS011;1289;53.488;10.006;2023-04-04T14:05:16;3.70;;;3.40;;
2558;SDS011;1289;53.488;10.006;2023-04-04T14:07:43;3.40;;;3.20;;
2558;SDS011;1289;53.488;10.006;2023-04-04T14:10:09;3.50;;;3.20;;
2558;SDS011;1289;53.488;10.006;2023-04-04T14:12:36;4.37;;;3.47;;
2558;SDS011;1289;53.488;10.006;2023-04-04T14:15:03;3.63;;;3.33;;
2558;SDS011;1289;53.488;10.006;2023-04-04T14:17:32;3.57;;;3.23;;
2558;SDS011;1289;53.488;10.006;2023-04-04T14:19:59;4.13;;;3.23;;
2558;SDS011;1289;53.488;10.006;2023-04-04T14:22:26;3.73;;;3.30;;
2558;SDS011;1289;53.488;10.006;2023-04-04T14:24:52;3.40;;;3.10;;
2558;SDS011;1289;53.488;10.006;2023-04-04T14:27:19;3.47;;;3.13;;
2558;SDS011;1289;53.488;10.006;2023-04-04T14:29:45;3.60;;;3.30;;
2558;SDS011;1289;53.488;10.006;2023-04-04T14:32:12;3.43;;;3.13;;
2558;SDS011;1289;53.488;10.006;2023-04-04T14:34:40;4.00;;;3.60;;
2558;SDS011;1289;53.488;10.006;2023-04-04T14:37:06;3.93;;;3.60;;
2558;SDS011;1289;53.488;10.006;2023-04-04T14:39:33;3.50;;;3.00;;
2558;SDS011;1289;53.488;10.006;2023-04-04T14:42:00;3.20;;;2.90;;
2558;SDS011;1289;53.488;10.006;2023-04-04T14:44:26;3.60;;;3.30;;
2558;SDS011;1289;53.488;10.006;2023-04-04T14:46:53;3.80;;;2.97;;
2558;SDS011;1289;53.488;10.006;2023-04-04T14:49:19;4.90;;;3.60;;
2558;SDS011;1289;53.488;10.006;2023-04-04T14:51:47;4.73;;;3.53;;
2558;SDS011;1289;53.488;10.006;2023-04-04T14:54:14;3.57;;;3.27;;
2558;SDS011;1289;53.488;10.006;2023-04-04T14:56:41;3.97;;;3.50;;
2558;SDS011;1289;53.488;10.006;2023-04-04T14:59:09;4.20;;;3.90;;
2558;SDS011;1289;53.488;10.006;2023-04-04T15:01:35;3.20;;;2.90;;
2558;SDS011;1289;53.488;10.006;2023-04-04T15:04:02;3.90;;;3.60;;
2558;SDS011;1289;53.488;10.006;2023-04-04T15:06:31;3.30;;;3.10;;
2558;SDS011;1289;53.488;10.006;2023-04-04T15:09:03;3.80;;;3.50;;
2558;SDS011;1289;53.488;10.006;2023-04-04T15:11:32;3.57;;;3.10;;
2558;SDS011;1289;53.488;10.006;2023-04-04T15:13:59;5.13;;;4.20;;
2558;SDS011;1289;53.488;10.006;2023-04-04T15:16:26;3.93;;;3.60;;
2558;SDS011;1289;53.488;10.006;2023-04-04T15:18:56;3.90;;;3.60;;
2558;SDS011;1289;53.488;10.006;2023-04-04T15:21:23;3.63;;;3.17;;